• Join FlightAware (Why Join?)
  • Login
  • US Flag 
12:48AM EST


 

Airport Tracker/Info


-or-


 

Live Flight TrackerFlight Track Log ✈ FLG3861 ✈ 18-Nov-2013 ✈ KDTW - KBGM

Flight Track Log - Related Links

Times and Time Zones

All times are in EST time to prevent confusion due to time zone crossing. See the FLG3861 flight status page for this flight to view local times or setup timezone preferences in your user account.

Time Position Orientation Groundspeed Altitude Reporting Facility
EST Latitude Longitude Course Direction KTS MPH feet Rate Location/Type
09:53PM 42.2050 -83.3528 177° South 153 176 1,300  Level Cleveland Center
09:54PM 42.1614 -83.3494 177° South 206 237 3,300 2,100 Climbing Cleveland Center
09:55PM 42.1344 -83.3453 173° South 203 234 4,300 2,400 Climbing Cleveland Center
09:55PM 42.0892 -83.3339 169° South 261 300 6,000 2,460 Climbing Cleveland Center
09:56PM 42.0694 -83.3006 129° Southeast 269 310 6,900 1,980 Climbing Cleveland Center
09:57PM 42.0825 -83.2044 80° East 279 321 8,900 1,740 Climbing Cleveland Center
09:58PM 42.1267 -83.1094 58° Northeast 301 346 10,500 1,500 Climbing Cleveland Center
09:59PM 42.1742 -83.0050 58° Northeast 327 376 12,000 1,260 Climbing Cleveland Center
10:00PM 42.2244 -82.8936 59° Northeast 348 400 13,200 1,500 Climbing Cleveland Center
10:01PM 42.2803 -82.7436 63° Northeast 384 442 15,100 1,680 Climbing Cleveland Center
10:02PM 42.2797 -82.5894 90° East 409 471 16,700 1,260 Climbing Cleveland Center
10:03PM 42.2778 -82.4278 91° East 427 491 17,700 1,020 Climbing Cleveland Center
10:04PM 42.2750 -82.2572 91° East 448 516 18,900 1,140 Climbing Cleveland Center
10:05PM 42.2731 -82.0883 91° East 460 529 20,100 1,140 Climbing Cleveland Center
10:06PM 42.2697 -81.9106 91° East 467 537 21,300 1,140 Climbing Cleveland Center
10:07PM 42.2669 -81.7325 91° East 469 540 22,500 1,020 Climbing Cleveland Center
10:08PM 42.2639 -81.5519 91° East 474 545 23,500 900 Climbing Cleveland Center
10:09PM 42.2642 -81.3692 90° East 479 551 24,400 780 Climbing Cleveland Center
10:10PM 42.2669 -81.1844 89° East 486 559 25,200 780 Climbing Cleveland Center
10:11PM 42.2692 -80.9681 89° East 488 562 26,100 780 Climbing Cleveland Center
10:12PM 42.2708 -80.7803 89° East 493 567 26,800 420 Climbing Cleveland Center
10:13PM 42.2733 -80.5900 89° East 499 574 27,000 60 Climbing Cleveland Center
10:14PM 42.2739 -80.3922 90° East 518 596 27,000  Level Cleveland Center
10:15PM 42.2747 -80.1894 90° East 532 612 27,000  Level Cleveland Center
10:16PM 42.2756 -79.9731 90° East 542 624 27,000  Level Cleveland Center
10:17PM 42.2753 -79.7653 90° East 540 621 27,000  Level Cleveland Center
10:18PM 42.2742 -79.5631 90° East 541 623 27,000  Level Cleveland Center
10:19PM 42.2736 -79.3622 90° East 540 621 27,000  Level Cleveland Center
10:20PM 42.2722 -79.1611 90° East 539 620 27,000  Level Cleveland Center
10:21PM 42.2706 -78.9600 91° East 538 619 27,000  Level Cleveland Center
10:22PM 42.2694 -78.7756 90° East 534 615 27,000  Level Cleveland Center
10:23PM 42.2675 -78.5378 91° East 531 611 27,000  Level Cleveland Center
10:24PM 42.2642 -78.3394 91° East 531 611 27,000  Level Cleveland Center
10:25PM 42.2617 -78.1428 91° East 530 610 27,000  Level Cleveland Center
10:26PM 42.2586 -77.9472 91° East 527 606 27,000 -240 Level Cleveland Center
10:27PM 42.2553 -77.7519 91° East 528 608 26,600 -960 Descending Cleveland Center
10:28PM 42.2508 -77.5556 92° East 530 610 25,100 -1,500 Descending Cleveland Center
10:29PM 42.2475 -77.3592 91° East 530 610 23,600 -1,680 Descending Cleveland Center
10:30PM 42.2411 -77.1256 92° East 526 605 21,700 -1,920 Descending Cleveland Center
10:31PM 42.2369 -76.9406 92° East 505 581 19,700 -1,980 Descending Cleveland Center
10:32PM 42.2331 -76.7694 92° East 464 534 17,700 -2,040 Descending Cleveland Center
10:34PM 42.2283 -76.6194 92° East 413 475 15,600 -2,280 Descending Cleveland Center
10:35PM 42.2236 -76.4778 93° East 386 444 13,100 -2,520 Descending Cleveland Center
10:36PM 42.2186 -76.3269 93° East 369 425 10,500 -2,160 Descending Cleveland Center
10:37PM 42.2167 -76.2117 91° East 317 365 8,800 -1,500 Descending Cleveland Center
10:38PM 42.1919 -76.1108 108° East 297 342 7,500 -1,380 Descending Cleveland Center
10:39PM 42.1347 -76.0325 135° Southeast 292 336 6,100 -1,380 Descending Cleveland Center
10:40PM 42.0706 -75.9533 138° Southeast 286 329 4,600 -1,080 Descending New York Center
10:41PM 42.0017 -75.9061 153° Southeast 286 329 3,900 -360 Descending New York Center
10:42PM 41.9656 -75.8306 123° Southeast 237 273 3,900  Level New York Center
10:43PM 42.0078 -75.8172 13° North 101 116 3,900  Level New York Center
10:44PM 42.0439 -75.8450 330° Northwest 101 116 3,900  Level New York Center
10:45PM 42.0800 -75.8758 328° Northwest 133 153 3,900 -120 Level New York Center
10:46PM 42.1142 -75.9036 329° Northwest 149 171 3,700 -420 Descending New York Center
10:47PM 42.1403 -75.9281 325° Northwest 136 157 3,100 -660 Descending New York Center
10:48PM 42.1706 -75.9500 332° Northwest 123 142 2,400 -720 Descending New York Center